Time;durP1;ratioP1;P1;durP2;ratioP2;P2;SDS_P1;SDS_P2;PMS_P1;PMS_P2;Temp;Humidity;BMP_temperature;BMP_pressure;BME280_temperature;BME280_humidity;BME280_pressure;Samples;Min_cycle;Max_cycle;Signal;HPM_P1;HPM_P2
2024/01/08 00:01:59;;;;;;;12.88;7.82;;;0.70;99.90;;;;;;4999817;28;20641;-72
2024/01/08 00:04:26;;;;;;;11.30;7.72;;;0.70;99.90;;;;;;4995143;28;20205;-70
2024/01/08 00:06:53;;;;;;;12.13;7.97;;;0.70;99.90;;;;;;5013280;28;20204;-71
2024/01/08 00:09:21;;;;;;;10.20;6.57;;;0.70;99.90;;;;;;4995385;28;20205;-71
2024/01/08 00:11:48;;;;;;;11.35;7.63;;;0.80;99.90;;;;;;4994966;28;20257;-72
2024/01/08 00:14:15;;;;;;;10.40;6.93;;;0.80;99.90;;;;;;5000666;28;20256;-73
2024/01/08 00:16:42;;;;;;;12.07;8.75;;;0.70;99.90;;;;;;4993695;28;20264;-73
2024/01/08 00:19:11;;;;;;;10.85;7.70;;;0.80;99.90;;;;;;4992951;28;20198;-71
2024/01/08 00:21:38;;;;;;;10.25;7.55;;;0.70;99.90;;;;;;5001805;28;20254;-70
2024/01/08 00:24:05;;;;;;;10.73;8.02;;;0.70;99.90;;;;;;4993775;28;20554;-72
2024/01/08 00:26:34;;;;;;;11.27;7.68;;;0.70;99.90;;;;;;4995804;28;20194;-69
2024/01/08 00:29:10;;;;;;;14.50;6.93;;;0.70;99.90;;;;;;4993185;28;20210;-71
2024/01/08 00:31:37;;;;;;;10.52;7.28;;;0.60;99.90;;;;;;5001394;28;20676;-71
2024/01/08 00:34:10;;;;;;;10.18;7.53;;;0.70;99.90;;;;;;4997762;28;20320;-70
2024/01/08 00:36:39;;;;;;;15.82;9.32;;;0.70;99.90;;;;;;4995492;28;20202;-72
2024/01/08 00:39:09;;;;;;;9.75;8.32;;;0.60;99.90;;;;;;5000206;28;20238;-71
2024/01/08 00:41:37;;;;;;;8.00;7.20;;;0.60;99.90;;;;;;4996177;28;20230;-71
2024/01/08 00:44:05;;;;;;;11.02;8.75;;;0.80;99.90;;;;;;5001163;28;20229;-71
2024/01/08 00:46:32;;;;;;;12.75;7.90;;;0.80;99.90;;;;;;4998698;28;20574;-71
2024/01/08 00:48:59;;;;;;;12.98;8.65;;;0.80;99.90;;;;;;4996835;28;20230;-71
2024/01/08 00:51:27;;;;;;;18.02;7.93;;;0.70;99.90;;;;;;5005017;28;20311;-72
2024/01/08 00:53:56;;;;;;;10.10;7.45;;;0.80;99.90;;;;;;5001038;28;20705;-71
2024/01/08 00:56:29;;;;;;;16.17;8.52;;;0.90;99.90;;;;;;5001497;28;20212;-71
2024/01/08 00:58:57;;;;;;;9.65;7.50;;;0.80;99.90;;;;;;4999362;28;20206;-71
2024/01/08 01:01:25;;;;;;;12.80;7.30;;;0.80;99.90;;;;;;5004639;28;20287;-72
2024/01/08 01:03:52;;;;;;;13.27;9.75;;;0.80;99.90;;;;;;5000715;28;20241;-71
2024/01/08 01:06:21;;;;;;;11.43;7.88;;;0.70;99.90;;;;;;5002485;28;20244;-72
2024/01/08 01:08:47;;;;;;;12.18;7.90;;;0.70;99.90;;;;;;5008438;28;20289;-71
2024/01/08 01:11:16;;;;;;;12.00;8.30;;;0.70;99.90;;;;;;4995995;28;20248;-71
2024/01/08 01:13:43;;;;;;;12.90;7.47;;;0.70;99.90;;;;;;4996568;28;20292;-70
2024/01/08 01:16:11;;;;;;;12.55;8.20;;;0.70;99.90;;;;;;4996273;28;20206;-72
2024/01/08 01:18:38;;;;;;;18.63;7.63;;;0.70;99.90;;;;;;5007565;28;20210;-69
2024/01/08 01:21:05;;;;;;;14.73;8.70;;;0.80;99.90;;;;;;4995347;28;20832;-72
2024/01/08 01:23:32;;;;;;;8.38;7.43;;;0.80;99.90;;;;;;4997815;28;20612;-72
2024/01/08 01:25:59;;;;;;;11.07;7.80;;;0.90;99.90;;;;;;5000540;28;20216;-71
2024/01/08 01:28:26;;;;;;;13.57;7.40;;;0.90;99.90;;;;;;5008788;28;20245;-71
2024/01/08 01:30:53;;;;;;;11.40;7.60;;;0.80;99.90;;;;;;4997867;28;20253;-72
2024/01/08 01:33:21;;;;;;;10.57;6.75;;;0.90;99.90;;;;;;4996101;28;20230;-71
2024/01/08 01:35:48;;;;;;;8.88;7.85;;;0.90;99.90;;;;;;5003821;28;20247;-71
2024/01/08 01:38:16;;;;;;;10.38;7.75;;;0.90;99.90;;;;;;5000534;28;20237;-71
2024/01/08 01:40:46;;;;;;;10.18;6.05;;;1.00;99.90;;;;;;5000271;28;20280;-72
2024/01/08 01:43:24;;;;;;;12.32;8.18;;;1.00;99.90;;;;;;4995930;28;20228;-70
2024/01/08 01:45:53;;;;;;;12.20;7.20;;;1.00;99.90;;;;;;5002479;28;20266;-71
2024/01/08 01:48:22;;;;;;;12.02;7.68;;;1.00;99.90;;;;;;5004212;28;20249;-71
2024/01/08 01:50:49;;;;;;;8.48;6.72;;;1.00;99.90;;;;;;4998790;28;20197;-70
2024/01/08 01:53:16;;;;;;;9.77;7.63;;;0.90;99.90;;;;;;5013913;28;20793;-73
2024/01/08 01:55:44;;;;;;;12.57;8.95;;;0.90;99.90;;;;;;4996335;28;20206;-71
2024/01/08 01:58:12;;;;;;;13.82;8.77;;;0.90;99.90;;;;;;5005489;28;20205;-69
2024/01/08 02:00:40;;;;;;;23.60;7.45;;;0.90;99.90;;;;;;4998192;28;20206;-72
2024/01/08 02:03:09;;;;;;;8.90;6.18;;;0.90;99.90;;;;;;4996003;28;20285;-71
2024/01/08 02:05:37;;;;;;;8.57;5.50;;;0.90;99.90;;;;;;4996929;28;20213;-71
2024/01/08 02:08:05;;;;;;;8.68;6.20;;;0.90;99.90;;;;;;5005841;28;20201;-71
2024/01/08 02:10:32;;;;;;;7.30;5.40;;;0.90;99.90;;;;;;4996208;28;20202;-72
2024/01/08 02:13:01;;;;;;;7.82;5.88;;;0.90;99.90;;;;;;5003897;28;20271;-71
2024/01/08 02:15:28;;;;;;;11.20;5.65;;;0.90;99.90;;;;;;4995933;28;20233;-71
2024/01/08 02:17:55;;;;;;;6.75;5.13;;;0.90;99.90;;;;;;5008899;28;20539;-73
2024/01/08 02:20:22;;;;;;;10.02;5.13;;;0.90;99.90;;;;;;4994206;28;20296;-70
2024/01/08 02:22:51;;;;;;;7.63;4.97;;;0.90;99.90;;;;;;4997292;28;20347;-70
2024/01/08 02:25:18;;;;;;;7.97;5.05;;;0.90;99.90;;;;;;4994610;28;20237;-68
2024/01/08 02:27:45;;;;;;;6.10;4.80;;;0.90;99.90;;;;;;5004907;28;20238;-71
2024/01/08 02:30:13;;;;;;;9.43;5.35;;;1.00;99.90;;;;;;4999777;28;20206;-70
2024/01/08 02:32:40;;;;;;;6.80;4.80;;;1.00;99.90;;;;;;4994669;28;20265;-71
2024/01/08 02:35:08;;;;;;;6.88;4.53;;;1.00;99.90;;;;;;4995638;28;20693;-70
2024/01/08 02:37:35;;;;;;;8.57;4.28;;;1.00;99.90;;;;;;5004082;28;20206;-70
2024/01/08 02:40:03;;;;;;;6.75;5.85;;;1.00;99.90;;;;;;4995075;28;20257;-70
2024/01/08 02:42:30;;;;;;;7.40;5.00;;;1.00;99.90;;;;;;4998030;28;20237;-70
2024/01/08 02:44:57;;;;;;;9.10;5.00;;;1.00;99.90;;;;;;4999167;28;20217;-73
2024/01/08 02:47:24;;;;;;;6.13;4.40;;;1.00;99.90;;;;;;5006540;28;20655;-72
2024/01/08 02:49:52;;;;;;;6.90;6.30;;;1.10;99.90;;;;;;4999618;28;20202;-71
2024/01/08 02:52:19;;;;;;;6.30;5.35;;;1.10;99.90;;;;;;4997088;28;20217;-71
2024/01/08 02:54:46;;;;;;;5.13;4.20;;;1.00;99.90;;;;;;5000464;28;20250;-71
2024/01/08 02:57:14;;;;;;;7.10;3.80;;;1.00;99.90;;;;;;5003923;28;20241;-71
2024/01/08 02:59:41;;;;;;;7.97;4.43;;;1.00;99.90;;;;;;4993884;28;20210;-71
2024/01/08 03:02:08;;;;;;;10.57;4.90;;;1.00;99.90;;;;;;5005173;28;20253;-73
2024/01/08 03:04:35;;;;;;;5.38;4.30;;;0.90;99.90;;;;;;4999068;28;20692;-69
2024/01/08 03:07:02;;;;;;;7.35;4.70;;;1.00;99.90;;;;;;5006520;28;20255;-72
2024/01/08 03:09:29;;;;;;;6.18;4.50;;;1.00;99.90;;;;;;5002546;28;20210;-71
2024/01/08 03:11:56;;;;;;;5.03;3.70;;;0.90;99.90;;;;;;4997353;28;20438;-71
2024/01/08 03:14:25;;;;;;;7.93;4.20;;;0.90;99.90;;;;;;4998788;28;20322;-70
2024/01/08 03:16:52;;;;;;;8.27;4.80;;;1.00;99.90;;;;;;4998330;28;20268;-73
2024/01/08 03:19:18;;;;;;;8.07;4.30;;;1.00;99.90;;;;;;4998337;28;20202;-71
2024/01/08 03:21:45;;;;;;;5.70;4.53;;;1.00;99.90;;;;;;4995790;28;20221;-71
2024/01/08 03:24:14;;;;;;;6.78;4.57;;;1.00;99.90;;;;;;4994091;28;20202;-71
2024/01/08 03:26:41;;;;;;;4.57;3.75;;;1.00;99.90;;;;;;5000966;28;20230;-71
2024/01/08 03:29:08;;;;;;;5.03;4.25;;;1.00;99.90;;;;;;5000113;28;20571;-70
2024/01/08 03:31:42;;;;;;;5.47;3.63;;;1.00;99.90;;;;;;5007795;28;20637;-70
2024/01/08 03:34:09;;;;;;;6.68;4.40;;;1.00;99.90;;;;;;5005073;28;20233;-71
2024/01/08 03:36:36;;;;;;;6.10;4.00;;;1.00;99.90;;;;;;4999128;28;20234;-70
2024/01/08 03:39:03;;;;;;;5.70;4.00;;;1.00;99.90;;;;;;5003492;28;20657;-71
2024/01/08 03:41:30;;;;;;;7.32;4.15;;;1.10;99.90;;;;;;4992544;28;20298;-70
2024/01/08 03:43:57;;;;;;;5.93;3.75;;;1.00;99.90;;;;;;5001592;28;20252;-70
2024/01/08 03:46:25;;;;;;;7.10;4.90;;;1.10;99.90;;;;;;4996138;28;20252;-71
2024/01/08 03:48:53;;;;;;;8.65;4.82;;;0.90;99.90;;;;;;5006164;28;20679;-71
2024/01/08 03:51:20;;;;;;;7.97;5.45;;;1.00;99.90;;;;;;4998745;28;20288;-70
2024/01/08 03:53:47;;;;;;;7.43;4.18;;;0.90;99.90;;;;;;4993470;28;20229;-71
2024/01/08 03:56:14;;;;;;;5.25;3.60;;;0.90;99.90;;;;;;4992995;28;20238;-72
2024/01/08 03:58:41;;;;;;;7.38;5.03;;;0.90;99.90;;;;;;4993940;28;20230;-71
2024/01/08 04:01:08;;;;;;;6.80;4.90;;;1.00;99.90;;;;;;5000115;28;20201;-71
2024/01/08 04:03:35;;;;;;;5.60;4.22;;;1.00;99.90;;;;;;5007081;28;20660;-72
2024/01/08 04:06:04;;;;;;;10.02;4.82;;;1.00;99.90;;;;;;4999362;28;20201;-71
2024/01/08 04:08:31;;;;;;;6.22;4.38;;;1.00;99.90;;;;;;5008215;28;21202;-73
2024/01/08 04:10:58;;;;;;;5.68;4.55;;;1.00;99.90;;;;;;4995150;28;20245;-71
2024/01/08 04:13:25;;;;;;;5.68;4.45;;;1.00;99.90;;;;;;5001214;28;20232;-71
2024/01/08 04:15:52;;;;;;;5.80;3.75;;;1.00;99.90;;;;;;4994080;28;20205;-70
2024/01/08 04:18:19;;;;;;;8.82;5.10;;;1.10;99.90;;;;;;4998712;28;20248;-72
2024/01/08 04:20:46;;;;;;;6.10;4.28;;;1.00;99.90;;;;;;4992359;28;20211;-69
2024/01/08 04:23:14;;;;;;;7.43;5.57;;;1.00;99.90;;;;;;4997737;28;20221;-70
2024/01/08 04:25:42;;;;;;;6.20;4.65;;;1.10;99.90;;;;;;4994556;28;20202;-70
2024/01/08 04:28:09;;;;;;;6.18;4.55;;;1.10;99.90;;;;;;5005208;28;20283;-70
2024/01/08 04:30:36;;;;;;;6.28;4.70;;;1.20;99.90;;;;;;4997764;28;20266;-71
2024/01/08 04:33:03;;;;;;;7.45;5.05;;;1.20;99.90;;;;;;4994359;28;20335;-72
2024/01/08 04:35:30;;;;;;;9.68;5.63;;;1.20;99.90;;;;;;4994727;28;20601;-72
2024/01/08 04:37:57;;;;;;;6.85;4.65;;;1.20;99.90;;;;;;5002060;28;20561;-70
2024/01/08 04:40:26;;;;;;;7.97;4.95;;;1.30;99.90;;;;;;4993299;28;20206;-72
2024/01/08 04:42:53;;;;;;;5.40;4.50;;;1.30;99.90;;;;;;4993049;28;20292;-72
2024/01/08 04:45:20;;;;;;;4.85;4.35;;;1.30;99.90;;;;;;5000385;28;20198;-70
2024/01/08 04:47:47;;;;;;;4.70;4.20;;;1.40;99.90;;;;;;4998723;28;20685;-71
2024/01/08 04:50:14;;;;;;;6.32;4.38;;;1.30;99.90;;;;;;4999076;28;20209;-71
2024/01/08 04:52:41;;;;;;;9.82;4.95;;;1.20;99.90;;;;;;4998452;28;20218;-72
2024/01/08 04:55:08;;;;;;;7.78;5.35;;;1.20;99.90;;;;;;4997050;28;20780;-71
2024/01/08 04:57:36;;;;;;;8.13;4.32;;;1.20;99.90;;;;;;4996440;28;20220;-72
2024/01/08 05:00:04;;;;;;;7.90;4.47;;;1.20;99.90;;;;;;4993283;28;20214;-72
2024/01/08 05:02:32;;;;;;;12.07;4.25;;;1.20;99.90;;;;;;4992551;28;20756;-72
2024/01/08 05:05:01;;;;;;;6.60;5.30;;;1.20;99.90;;;;;;4995601;28;20209;-73
2024/01/08 05:07:28;;;;;;;6.68;4.45;;;1.30;99.90;;;;;;4995984;28;20661;-71
2024/01/08 05:09:55;;;;;;;6.93;4.32;;;1.30;99.90;;;;;;4996732;28;20260;-71
2024/01/08 05:12:22;;;;;;;6.90;4.05;;;1.30;99.90;;;;;;4993256;28;20222;-71
2024/01/08 05:14:50;;;;;;;9.50;5.18;;;1.30;99.90;;;;;;4992402;28;20253;-74
2024/01/08 05:17:17;;;;;;;6.80;4.35;;;1.20;99.90;;;;;;5001107;28;20592;-70
2024/01/08 05:19:44;;;;;;;6.05;3.60;;;1.20;99.90;;;;;;4992014;28;20234;-71
2024/01/08 05:22:11;;;;;;;7.28;5.15;;;1.30;99.90;;;;;;4992490;28;20258;-72
2024/01/08 05:24:38;;;;;;;5.82;4.00;;;1.20;99.90;;;;;;5001460;28;20198;-71
2024/01/08 05:27:05;;;;;;;5.90;4.50;;;1.10;99.90;;;;;;4993141;28;20229;-70
2024/01/08 05:29:32;;;;;;;11.13;4.65;;;1.10;99.90;;;;;;5005067;28;20237;-71
2024/01/08 05:32:01;;;;;;;7.53;3.90;;;1.10;99.90;;;;;;4998570;28;20292;-71
2024/01/08 05:34:28;;;;;;;6.00;4.85;;;1.10;99.90;;;;;;4994363;28;20681;-72
2024/01/08 05:36:56;;;;;;;6.72;4.50;;;1.20;99.90;;;;;;5006897;28;20212;-71
2024/01/08 05:39:23;;;;;;;9.05;4.75;;;1.20;99.90;;;;;;4991459;28;20209;-72
2024/01/08 05:41:50;;;;;;;7.78;5.13;;;1.20;99.90;;;;;;4996043;28;20313;-71
2024/01/08 05:44:17;;;;;;;6.60;4.50;;;1.20;99.90;;;;;;4998888;28;20238;-72
2024/01/08 05:46:45;;;;;;;6.28;4.40;;;1.20;99.90;;;;;;4996626;28;20206;-70
2024/01/08 05:49:14;;;;;;;7.03;5.13;;;1.20;99.90;;;;;;5004991;28;20229;-71
2024/01/08 05:51:41;;;;;;;5.65;4.38;;;1.10;99.90;;;;;;4999491;28;20229;-71
2024/01/08 05:54:08;;;;;;;7.13;4.60;;;1.10;99.90;;;;;;4997827;28;20316;-69
2024/01/08 05:56:37;;;;;;;7.25;5.60;;;1.20;99.90;;;;;;5000756;28;20248;-69
2024/01/08 05:59:04;;;;;;;8.95;5.00;;;1.20;99.90;;;;;;5008180;28;20351;-71
2024/01/08 06:01:31;;;;;;;7.63;4.90;;;1.20;99.90;;;;;;4998383;28;20323;-72
2024/01/08 06:03:58;;;;;;;7.82;4.55;;;1.30;99.90;;;;;;5002791;28;20263;-72
2024/01/08 06:06:28;;;;;;;8.82;6.20;;;1.30;99.90;;;;;;5007225;28;20235;-72
2024/01/08 06:08:55;;;;;;;11.38;4.80;;;1.30;99.90;;;;;;5010637;28;20248;-72
2024/01/08 06:11:24;;;;;;;7.63;4.20;;;1.30;99.90;;;;;;4997979;28;20214;-70
2024/01/08 06:13:51;;;;;;;5.20;4.45;;;1.40;99.90;;;;;;4995798;28;20257;-71
2024/01/08 06:16:18;;;;;;;7.40;4.65;;;1.40;99.90;;;;;;4995161;28;20226;-72
2024/01/08 06:18:45;;;;;;;6.57;5.00;;;1.50;99.90;;;;;;4995136;28;20589;-71
2024/01/08 06:21:12;;;;;;;7.20;5.20;;;1.40;99.90;;;;;;4995354;28;20677;-70
2024/01/08 06:23:41;;;;;;;6.97;3.97;;;1.50;99.90;;;;;;4995359;28;20206;-69
2024/01/08 06:26:09;;;;;;;6.93;4.70;;;1.50;99.90;;;;;;4998852;28;20214;-70
2024/01/08 06:28:36;;;;;;;5.65;4.97;;;1.50;99.90;;;;;;5001368;28;20261;-70
2024/01/08 06:31:05;;;;;;;7.15;4.40;;;1.50;99.90;;;;;;5000542;28;20576;-71
2024/01/08 06:33:32;;;;;;;5.55;3.95;;;1.50;99.90;;;;;;5001597;28;20206;-71
2024/01/08 06:35:59;;;;;;;7.72;3.53;;;1.40;99.90;;;;;;4996855;28;20307;-72
2024/01/08 06:38:26;;;;;;;9.57;4.95;;;1.40;99.90;;;;;;4998876;28;20224;-69
2024/01/08 06:40:54;;;;;;;6.30;4.95;;;1.30;99.90;;;;;;5001014;28;20287;-70
2024/01/08 06:43:21;;;;;;;6.15;4.10;;;1.30;99.90;;;;;;4999631;28;20223;-69
2024/01/08 06:45:49;;;;;;;6.03;4.78;;;1.30;99.90;;;;;;5000445;28;20208;-69
2024/01/08 06:48:16;;;;;;;8.93;5.20;;;1.30;99.90;;;;;;5007358;28;20277;-72
2024/01/08 06:50:43;;;;;;;5.07;4.35;;;1.30;99.90;;;;;;4995228;28;20668;-69
2024/01/08 06:53:10;;;;;;;6.32;4.28;;;1.30;99.90;;;;;;4994458;28;20316;-70
2024/01/08 06:55:37;;;;;;;7.80;4.10;;;1.30;99.90;;;;;;4997427;28;20233;-69
2024/01/08 06:58:06;;;;;;;6.32;4.60;;;1.30;99.90;;;;;;4998432;28;20198;-72
2024/01/08 07:00:33;;;;;;;5.65;3.85;;;1.30;99.90;;;;;;4998098;28;20198;-69
2024/01/08 07:03:00;;;;;;;4.43;4.00;;;1.50;99.90;;;;;;4998046;28;20308;-73
2024/01/08 07:05:27;;;;;;;4.93;4.28;;;1.50;99.90;;;;;;5002071;28;20669;-69
2024/01/08 07:07:55;;;;;;;5.10;3.70;;;1.40;99.90;;;;;;5000563;28;20206;-72
2024/01/08 07:10:22;;;;;;;5.47;4.22;;;1.40;99.90;;;;;;4998171;28;20210;-70
2024/01/08 07:12:49;;;;;;;4.93;3.30;;;1.40;99.90;;;;;;4999269;28;20217;-72
2024/01/08 07:15:43;;;;;;;5.10;3.97;;;1.40;99.90;;;;;;4999749;28;20315;-73
2024/01/08 07:18:10;;;;;;;8.23;4.55;;;1.30;99.90;;;;;;4995298;28;20202;-73
2024/01/08 07:20:38;;;;;;;8.93;4.60;;;1.30;99.90;;;;;;4995185;28;20299;-71
2024/01/08 07:23:05;;;;;;;7.40;3.63;;;1.30;99.90;;;;;;4994661;28;20253;-71
2024/01/08 07:25:32;;;;;;;6.82;4.63;;;1.30;99.90;;;;;;4995266;28;20289;-71
2024/01/08 07:28:00;;;;;;;8.00;4.38;;;1.30;99.90;;;;;;4998198;28;20201;-71
2024/01/08 07:30:27;;;;;;;4.90;3.60;;;1.30;99.90;;;;;;5002068;28;20216;-71
2024/01/08 07:32:56;;;;;;;6.15;4.60;;;1.30;99.90;;;;;;5003810;28;20257;-70
2024/01/08 07:35:23;;;;;;;4.18;3.78;;;1.30;99.90;;;;;;4998168;28;20624;-72
2024/01/08 07:37:54;;;;;;;4.22;3.72;;;1.40;99.90;;;;;;5001314;28;20202;-72
2024/01/08 07:40:23;;;;;;;4.32;3.92;;;1.30;99.90;;;;;;4997166;28;20205;-72
2024/01/08 07:42:49;;;;;;;9.90;4.57;;;1.30;99.90;;;;;;4995482;28;20230;-71
2024/01/08 07:45:18;;;;;;;8.18;4.60;;;1.30;99.90;;;;;;4994445;28;20194;-72
2024/01/08 07:47:44;;;;;;;5.45;4.25;;;1.20;99.90;;;;;;5000261;28;20202;-73
2024/01/08 07:50:13;;;;;;;5.13;3.90;;;1.30;99.90;;;;;;4994759;28;20210;-72
2024/01/08 07:52:40;;;;;;;4.53;3.63;;;1.30;99.90;;;;;;4996747;28;20631;-72
2024/01/08 07:55:08;;;;;;;7.22;4.20;;;1.30;99.90;;;;;;5008773;28;20222;-71
2024/01/08 07:57:35;;;;;;;5.70;4.45;;;1.20;99.90;;;;;;5001861;28;20202;-71
2024/01/08 08:00:02;;;;;;;5.70;4.10;;;1.20;99.90;;;;;;4999159;28;20232;-71
2024/01/08 08:02:29;;;;;;;5.32;3.72;;;1.20;99.90;;;;;;4999043;28;20221;-70
2024/01/08 08:04:56;;;;;;;4.60;3.83;;;1.10;99.90;;;;;;5005997;28;20272;-71
2024/01/08 08:07:25;;;;;;;5.25;4.20;;;1.10;99.90;;;;;;4995237;28;20252;-72
2024/01/08 08:09:52;;;;;;;6.28;4.43;;;1.00;99.90;;;;;;5001265;28;20202;-70
2024/01/08 08:12:19;;;;;;;4.88;3.05;;;1.10;99.90;;;;;;5001537;28;20676;-72
2024/01/08 08:14:48;;;;;;;5.90;4.57;;;1.10;99.90;;;;;;4997735;28;20707;-70
2024/01/08 08:17:15;;;;;;;4.43;3.58;;;1.10;99.90;;;;;;5013975;28;20217;-71
2024/01/08 08:19:42;;;;;;;4.80;4.30;;;1.20;99.90;;;;;;5004547;28;20206;-71
2024/01/08 08:22:11;;;;;;;5.70;3.75;;;1.10;99.90;;;;;;4993278;28;20779;-70
2024/01/08 08:24:39;;;;;;;5.40;4.78;;;1.10;99.90;;;;;;4994909;28;20206;-72
2024/01/08 08:27:09;;;;;;;11.45;4.32;;;1.30;99.90;;;;;;4998142;28;20206;-71
2024/01/08 08:29:37;;;;;;;3.95;3.20;;;1.30;99.90;;;;;;5006519;28;20666;-71
2024/01/08 08:32:05;;;;;;;6.25;3.70;;;1.40;99.90;;;;;;4999439;28;20597;-72
2024/01/08 08:34:32;;;;;;;7.22;3.45;;;1.40;99.90;;;;;;4996257;28;20269;-71
2024/01/08 08:36:59;;;;;;;5.35;3.50;;;1.50;99.90;;;;;;5000057;28;20260;-71
2024/01/08 08:39:26;;;;;;;5.78;4.45;;;1.50;99.90;;;;;;5005692;28;20208;-71
2024/01/08 08:41:55;;;;;;;6.65;3.72;;;1.40;99.90;;;;;;4992159;28;20234;-72
2024/01/08 08:44:22;;;;;;;6.00;4.70;;;1.30;99.90;;;;;;5000398;28;20719;-71
2024/01/08 08:46:49;;;;;;;10.82;5.28;;;1.30;99.90;;;;;;4994642;28;20552;-72
2024/01/08 08:49:16;;;;;;;6.78;4.68;;;1.30;99.90;;;;;;4992904;28;20645;-70
2024/01/08 08:51:44;;;;;;;5.60;4.25;;;1.30;99.90;;;;;;4993644;28;20688;-71
2024/01/08 08:54:11;;;;;;;7.03;4.50;;;1.10;99.90;;;;;;5001834;28;20268;-72
2024/01/08 08:56:39;;;;;;;6.70;4.78;;;1.00;99.90;;;;;;4993129;28;20225;-71
2024/01/08 08:59:07;;;;;;;6.85;4.38;;;1.00;99.90;;;;;;5003471;28;20217;-72
2024/01/08 09:01:34;;;;;;;9.27;5.50;;;0.90;99.90;;;;;;5009398;28;20229;-69
2024/01/08 09:04:02;;;;;;;12.55;5.45;;;0.80;99.90;;;;;;4997269;28;20201;-73
2024/01/08 09:06:33;;;;;;;9.27;4.40;;;0.70;99.90;;;;;;4995519;28;20217;-72
2024/01/08 09:09:00;;;;;;;6.78;4.60;;;0.70;99.90;;;;;;4992567;28;20209;-71
2024/01/08 09:11:28;;;;;;;5.78;4.10;;;0.80;99.90;;;;;;4991821;28;20300;-70
2024/01/08 09:13:55;;;;;;;9.40;5.00;;;0.90;99.90;;;;;;4992628;28;20204;-73
2024/01/08 09:16:26;;;;;;;6.97;4.78;;;1.00;99.90;;;;;;4992749;28;20238;-72
2024/01/08 09:18:53;;;;;;;7.05;5.95;;;1.00;99.90;;;;;;4997763;28;20248;-71
2024/01/08 09:21:20;;;;;;;7.00;5.22;;;1.10;99.90;;;;;;4998250;28;20201;-69
2024/01/08 09:23:47;;;;;;;7.72;5.32;;;1.10;99.90;;;;;;5003414;28;20210;-72
2024/01/08 09:26:15;;;;;;;11.77;6.10;;;1.10;99.90;;;;;;5004464;28;20268;-71
2024/01/08 09:28:42;;;;;;;7.07;5.75;;;0.90;99.90;;;;;;4999145;28;20217;-71
2024/01/08 09:31:09;;;;;;;6.85;5.50;;;1.00;99.90;;;;;;5016589;28;20213;-70
2024/01/08 09:33:38;;;;;;;8.43;5.22;;;0.90;99.90;;;;;;5006666;28;20198;-73
2024/01/08 09:36:06;;;;;;;6.43;5.00;;;1.00;99.90;;;;;;4996666;28;20230;-71
2024/01/08 09:38:33;;;;;;;7.57;5.50;;;0.90;99.90;;;;;;5008023;28;20226;-71
2024/01/08 09:41:00;;;;;;;9.15;5.82;;;1.00;99.90;;;;;;5006620;28;20221;-72
2024/01/08 09:43:28;;;;;;;8.55;5.43;;;1.10;99.90;;;;;;4998721;28;20233;-71
2024/01/08 09:46:07;;;;;;;7.78;5.70;;;1.20;99.90;;;;;;5015059;28;20227;-71
2024/01/08 09:48:35;;;;;;;10.40;8.50;;;1.20;99.90;;;;;;5004501;28;20214;-73
2024/01/08 09:51:04;;;;;;;8.63;5.70;;;1.30;99.90;;;;;;5012164;28;20202;-71
2024/01/08 09:53:32;;;;;;;7.60;5.35;;;1.40;99.90;;;;;;4998512;28;20252;-72
2024/01/08 09:56:00;;;;;;;6.57;5.20;;;1.30;99.90;;;;;;5004890;28;20514;-72
2024/01/08 09:58:28;;;;;;;10.70;6.50;;;1.30;99.90;;;;;;5001787;28;20213;-72
2024/01/08 10:00:55;;;;;;;6.15;4.60;;;1.20;99.90;;;;;;5004312;28;20202;-72
2024/01/08 10:03:22;;;;;;;7.40;5.68;;;1.20;99.90;;;;;;5001177;28;20357;-72
2024/01/08 10:05:50;;;;;;;9.02;5.82;;;1.20;99.90;;;;;;5005928;28;20620;-70
2024/01/08 10:08:19;;;;;;;9.23;6.60;;;1.10;99.90;;;;;;5000750;28;20229;-70
2024/01/08 10:10:48;;;;;;;18.90;7.40;;;1.20;99.90;;;;;;5004969;28;20336;-70
2024/01/08 10:13:15;;;;;;;10.77;6.25;;;1.20;99.90;;;;;;5009417;28;20272;-70
2024/01/08 10:15:47;;;;;;;9.02;6.57;;;1.20;99.90;;;;;;5000868;28;20253;-70
2024/01/08 10:18:17;;;;;;;12.35;5.75;;;1.20;99.90;;;;;;5002393;28;20233;-72
2024/01/08 10:20:45;;;;;;;8.20;4.55;;;1.10;99.90;;;;;;5000945;28;20541;-72
2024/01/08 10:23:16;;;;;;;7.70;5.45;;;1.00;99.90;;;;;;4998448;28;20298;-71
2024/01/08 10:25:51;;;;;;;7.70;4.00;;;0.90;99.90;;;;;;5001118;28;20671;-71
2024/01/08 10:28:19;;;;;;;6.00;4.45;;;0.90;99.90;;;;;;4994298;28;20237;-72
2024/01/08 10:30:47;;;;;;;7.80;5.07;;;0.90;99.90;;;;;;4996345;28;20214;-75
2024/01/08 10:33:17;;;;;;;11.68;6.20;;;1.00;99.90;;;;;;5000821;28;20278;-70
2024/01/08 10:35:44;;;;;;;6.80;4.15;;;1.00;99.90;;;;;;4996235;28;20218;-72
2024/01/08 10:38:13;;;;;;;7.47;5.10;;;1.10;99.90;;;;;;4996385;28;20240;-69
2024/01/08 10:40:40;;;;;;;8.05;5.00;;;1.10;99.90;;;;;;4993994;28;20206;-74
2024/01/08 10:43:09;;;;;;;6.90;4.30;;;1.10;99.90;;;;;;4995579;28;20242;-71
2024/01/08 10:45:36;;;;;;;7.30;5.22;;;1.10;99.90;;;;;;4994715;28;20282;-70
2024/01/08 10:48:11;;;;;;;6.90;4.30;;;1.00;99.90;;;;;;4995904;28;20268;-71
2024/01/08 10:50:39;;;;;;;11.93;4.85;;;1.00;99.90;;;;;;5006490;28;20200;-74
2024/01/08 10:53:13;;;;;;;8.13;5.35;;;1.10;99.90;;;;;;5011193;28;20218;-72
2024/01/08 10:55:43;;;;;;;8.77;5.57;;;1.10;99.90;;;;;;4999990;28;20261;-71
2024/01/08 10:58:22;;;;;;;6.40;4.60;;;0.90;99.90;;;;;;5007105;28;20209;-72
2024/01/08 11:00:49;;;;;;;10.27;5.38;;;1.10;99.90;;;;;;5006588;28;20271;-71
2024/01/08 11:03:17;;;;;;;8.45;5.50;;;1.10;99.90;;;;;;5006196;28;20275;-72
2024/01/08 11:05:50;;;;;;;14.45;5.55;;;1.20;99.90;;;;;;5002048;28;20203;-70
2024/01/08 11:08:19;;;;;;;7.32;4.68;;;1.40;99.90;;;;;;4997437;28;20257;-72
2024/01/08 11:10:47;;;;;;;4.88;3.78;;;1.40;99.90;;;;;;5001438;28;20256;-71
2024/01/08 11:13:16;;;;;;;6.95;4.15;;;1.40;99.90;;;;;;4999833;28;20230;-71
2024/01/08 11:15:46;;;;;;;8.38;5.22;;;1.40;99.90;;;;;;4996879;28;20233;-72
2024/01/08 11:18:25;;;;;;;10.68;5.00;;;1.50;99.90;;;;;;4999736;28;20206;-72
2024/01/08 11:20:53;;;;;;;6.95;3.78;;;1.40;99.90;;;;;;5001320;28;20242;-70
2024/01/08 11:23:34;;;;;;;16.00;4.47;;;1.50;99.90;;;;;;5005382;28;20244;-72
2024/01/08 11:26:04;;;;;;;10.60;4.28;;;1.50;99.90;;;;;;5016173;28;20229;-74
2024/01/08 11:28:34;;;;;;;6.22;4.80;;;1.70;99.90;;;;;;4999279;28;20297;-72
2024/01/08 11:31:36;;;;;;;8.38;4.22;;;1.50;99.90;;;;;;5001876;28;20603;-70
2024/01/08 11:34:40;;;;;;;8.00;5.25;;;1.50;99.90;;;;;;4978107;28;20610;-73
2024/01/08 11:37:31;;;;;;;11.23;5.00;;;1.50;99.90;;;;;;4968660;28;20282;-71
2024/01/08 11:39:59;;;;;;;4.57;3.17;;;1.40;99.90;;;;;;5009698;28;20213;-71
2024/01/08 11:42:26;;;;;;;6.72;3.33;;;1.30;99.90;;;;;;4993123;28;20256;-71
2024/01/08 11:44:54;;;;;;;8.77;3.40;;;1.40;99.90;;;;;;4994740;28;20220;-71
2024/01/08 11:47:21;;;;;;;6.68;3.42;;;1.40;99.90;;;;;;4993998;28;20197;-73
2024/01/08 11:49:51;;;;;;;4.43;3.17;;;1.40;99.90;;;;;;4998981;28;20611;-72
2024/01/08 11:52:19;;;;;;;5.93;3.70;;;1.40;99.90;;;;;;4999253;28;20231;-73
2024/01/08 11:54:48;;;;;;;7.38;4.57;;;1.40;99.90;;;;;;4996561;28;20221;-70
2024/01/08 11:57:17;;;;;;;4.70;3.08;;;1.40;99.90;;;;;;4995842;28;20217;-72
2024/01/08 11:59:45;;;;;;;7.43;4.85;;;1.50;99.90;;;;;;4996849;28;20214;-71
2024/01/08 12:02:15;;;;;;;6.43;4.20;;;1.60;99.90;;;;;;4996557;28;20238;-71
2024/01/08 12:04:43;;;;;;;8.88;4.28;;;1.60;99.90;;;;;;5004380;28;20204;-72
2024/01/08 12:07:12;;;;;;;4.88;3.92;;;1.70;99.90;;;;;;4994765;28;20281;-72
2024/01/08 12:09:39;;;;;;;7.82;4.88;;;1.70;99.90;;;;;;4998996;28;20213;-70
2024/01/08 12:12:09;;;;;;;4.35;3.45;;;1.60;99.90;;;;;;4993104;28;20230;-72
2024/01/08 12:14:37;;;;;;;6.20;3.85;;;1.60;99.90;;;;;;4996904;28;20558;-74
2024/01/08 12:17:05;;;;;;;4.15;3.75;;;1.60;99.90;;;;;;4993054;28;20214;-72
2024/01/08 12:19:41;;;;;;;9.90;5.00;;;1.50;99.90;;;;;;4993536;28;20202;-72
2024/01/08 12:22:11;;;;;;;4.65;3.55;;;1.40;99.90;;;;;;5009375;28;20233;-70
2024/01/08 12:24:40;;;;;;;8.20;3.15;;;1.50;99.90;;;;;;5003107;28;20645;-71
2024/01/08 12:27:09;;;;;;;5.38;3.72;;;1.60;99.90;;;;;;4997052;28;20206;-71
2024/01/08 12:29:39;;;;;;;6.10;3.17;;;1.50;99.90;;;;;;4999885;28;20265;-72
2024/01/08 12:32:07;;;;;;;5.68;3.33;;;1.50;99.90;;;;;;5010653;28;20234;-72
2024/01/08 12:34:37;;;;;;;5.13;3.40;;;1.40;99.90;;;;;;5000244;28;20279;-72
2024/01/08 12:37:05;;;;;;;4.80;2.47;;;1.40;99.90;;;;;;4996107;28;20225;-71
2024/01/08 12:39:34;;;;;;;6.32;4.05;;;1.40;99.90;;;;;;4998303;28;20245;-72
2024/01/08 12:42:04;;;;;;;3.65;3.30;;;1.40;99.90;;;;;;4998673;28;20554;-69
2024/01/08 12:44:32;;;;;;;4.38;3.63;;;1.40;99.90;;;;;;4997405;28;20560;-71
2024/01/08 12:47:00;;;;;;;6.90;3.42;;;1.40;99.90;;;;;;4993363;28;20205;-71
2024/01/08 12:49:28;;;;;;;3.17;2.63;;;1.50;99.90;;;;;;4992621;28;20241;-70
2024/01/08 12:51:58;;;;;;;9.85;3.15;;;1.50;99.90;;;;;;5004680;28;20222;-70
2024/01/08 12:54:26;;;;;;;3.67;3.30;;;1.50;99.90;;;;;;5003241;28;20209;-72
2024/01/08 12:56:53;;;;;;;3.78;2.88;;;1.60;99.90;;;;;;5002885;28;20221;-70
2024/01/08 12:59:24;;;;;;;4.35;3.08;;;1.50;99.90;;;;;;4995985;28;20214;-73
2024/01/08 13:01:51;;;;;;;4.65;3.40;;;1.50;99.90;;;;;;5009563;28;20231;-70